Ana Sayfa
METAR-TAF:

METAR-TAF

Havaalanları :

Henderson-Oxford Airport

Oxford, Kuzey Carolina, Amerika Birleşik Devletleri

Enlem: 36-21-42N, Boylam: 078-31-45W, yükseklik: 161 m

Güncel hava durumu gözlemi

Rapor saat 14:35 UTC de 32 dakika önce yapıldı.
Rüzgar kuzey/kuzeybatıdan 5 kt
Sıcaklık 17°C
Nem 59%
Basınç 1021 hPa
Görüş mesafesi: 16.1 km
Açık gökyüzü

METAR: KHNZ 241435Z AUTO 34005KT 10SM CLR 17/09 A3015 RMK AO2 T01700086

Saat: 11:07 (15:07 UTC)


TAF: eksik

4.000'den fazla havaalanı için hava durumu gözlemleri ve tahminleri (METAR ve TAF raporları).

Kullanılabilir istasyonlar harita üzerinde sarı ve kırmızı noktalarla gösterilir.

İstasyonun adını görmek için fareyi noktanın üzerinde gezdirin.

Sonrasında hava gözlem ve tahminlerini görmek için tıklayın.

Haritayı değiştirmek için: yaklaştırmak için siyah artı işaretli yeşil düğmeye ve uzaklaştırmak için de eksi işaretli düğmeye hızla tıklayın; bitişik haritalar için yeşil okları kullanın.


METAR-TAF: